Saint Peters, Prince Edward Island

12:40 AM ADT on July 25, 2016 (GMT -0300)
Dingwells Mills | | Change Station

Elev 26 ft 46.36 °N, 62.43 °W | Updated 13 seconds ago

Patches of Fog
Patches Fog Shallow Fog
60.9 °F
Feels Like 60.9 °F
N
0.0
Wind Variable Wind from North
Gusts 0.0 mph

Today
High -- | Low -- °F
--% Chance of Precip.
Yesterday
High -- | Low -- °F
Precip. -- in
Pressure 29.90 in
Visibility 12.0 miles
Clouds Few 200 ft
Few 25000 ft
Dew Point 58 °F
Humidity 89%
Rainfall 0.00 in
Snow Depth Not available.
5:43 AM 8:49 PM
Waning Gibbous, 70% visible
METAR CYYG 250300Z 03002KT 12SM BCFG MIFG FEW002 FEW250 17/17 A2989 RMK ST1CI1 ST TR SLP125 DENSITY ALT 400FT
Pressure 29.90 in
Visibility 12.0 miles
Clouds Few 200 ft
Few 25000 ft
Dew Point 58 °F
Humidity 89%
Rainfall 0.00 in
Snow Depth Not available.
5:43 AM 8:49 PM
Waning Gibbous, 70% visible
METAR CYYG 250300Z 03002KT 12SM BCFG MIFG FEW002 FEW250 17/17 A2989 RMK ST1CI1 ST TR SLP125 DENSITY ALT 400FT

10-Day Weather Forecast

No radar image for this location.
×

Almanac

Astronomy

Jul. 25, 2016 Rise Set
Actual Time
Civil Twilight
Nautical Twilight
Astronomical Twilight
Moon
Length of Visible Light
Length of Day
Tomorrow will be .
, % of the Moon is Illuminated

Today's Extremes

Country Highs Country Lows

Community

WunderPhotos

Upload Photos

1,927,256 photos uploaded!

WunderBlog® & News

Nearby

Air Quality

  Air Quality AQ Index Pollutant
Not available.

Snow Depth

Station Depth Elevation

Earthquake Activity

City Distance Mag. Time & Date
Minimum magnitude displayed is 2.5.

Coastal Water Temperatures

Place Temperature

Stations

Nearby Weather Stations

Station Location Temp. Windchill Dew Point Humidity Wind Precip. Elev Updated Type
                   

Watches & Warnings

There are currently no watches in effect.